createdAt,value
2018-11-04T00:01:13.730Z,22.03
2018-11-04T00:03:42.792Z,27.57
2018-11-04T00:06:11.562Z,29.43
2018-11-04T00:08:40.261Z,24.07
2018-11-04T00:11:08.964Z,28.80
2018-11-04T00:13:37.683Z,26.57
2018-11-04T00:16:06.524Z,26.23
2018-11-04T00:18:35.286Z,25.57
2018-11-04T00:21:04.029Z,26.47
2018-11-04T00:23:32.725Z,22.23
2018-11-04T00:26:01.458Z,23.33
2018-11-04T00:28:30.185Z,26.87
2018-11-04T00:30:58.941Z,23.10
2018-11-04T00:33:27.799Z,27.50
2018-11-04T00:35:56.508Z,22.43
2018-11-04T00:38:25.242Z,27.17
2018-11-04T00:40:53.957Z,25.30
2018-11-04T00:43:23.073Z,24.33
2018-11-04T00:45:51.784Z,21.77
2018-11-04T00:48:20.627Z,25.93
2018-11-04T00:50:49.303Z,24.83
2018-11-04T00:53:18.208Z,20.90
2018-11-04T00:55:47.951Z,24.13
2018-11-04T00:58:16.832Z,22.83
2018-11-04T01:00:45.554Z,23.87
2018-11-04T01:03:14.237Z,24.33
2018-11-04T01:05:42.971Z,24.77
2018-11-04T01:08:11.705Z,26.30
2018-11-04T01:10:40.473Z,23.73
2018-11-04T01:13:09.194Z,23.97
2018-11-04T01:15:37.921Z,24.47
2018-11-04T01:18:06.666Z,23.33
2018-11-04T01:20:35.391Z,25.63
2018-11-04T01:23:04.126Z,28.77
2018-11-04T01:25:32.851Z,25.00
2018-11-04T01:28:01.588Z,24.30
2018-11-04T01:30:30.355Z,22.93
2018-11-04T01:32:59.018Z,24.37
2018-11-04T01:35:27.816Z,24.47
2018-11-04T01:37:56.442Z,25.20
2018-11-04T01:40:25.186Z,26.37
2018-11-04T01:42:53.908Z,26.13
2018-11-04T01:45:22.614Z,25.70
2018-11-04T01:47:51.304Z,22.77
2018-11-04T01:50:20.086Z,25.30
2018-11-04T01:52:48.792Z,28.60
2018-11-04T01:55:17.578Z,41.83
2018-11-04T01:57:46.342Z,28.23
2018-11-04T02:00:16.604Z,24.37
2018-11-04T02:02:46.510Z,23.67
2018-11-04T02:05:15.648Z,28.27
2018-11-04T02:07:44.722Z,25.30
2018-11-04T02:10:14.568Z,27.83
2018-11-04T02:12:43.310Z,24.33
2018-11-04T02:15:12.923Z,24.70
2018-11-04T02:17:41.646Z,29.43
2018-11-04T02:20:11.771Z,23.40
2018-11-04T02:22:41.079Z,27.00
2018-11-04T02:25:11.139Z,26.73
2018-11-04T02:27:40.159Z,25.87
2018-11-04T02:30:11.541Z,28.03
2018-11-04T02:32:40.481Z,27.10
2018-11-04T02:35:09.421Z,28.07
2018-11-04T02:37:38.189Z,30.83
2018-11-04T02:40:06.930Z,28.30
2018-11-04T02:42:35.784Z,27.23
2018-11-04T02:45:05.189Z,28.40
2018-11-04T02:47:33.935Z,25.67
2018-11-04T02:50:02.659Z,27.07
2018-11-04T02:52:31.413Z,32.97
2018-11-04T02:55:00.148Z,30.57
2018-11-04T02:57:28.978Z,27.20
2018-11-04T02:59:57.701Z,28.33
2018-11-04T03:02:26.663Z,27.23
2018-11-04T03:04:55.389Z,28.60
2018-11-04T03:07:24.121Z,28.00
2018-11-04T03:09:52.864Z,30.23
2018-11-04T03:12:21.881Z,32.00
2018-11-04T03:14:50.614Z,29.07
2018-11-04T03:17:26.216Z,28.63
2018-11-04T03:19:54.936Z,29.13
2018-11-04T03:22:23.662Z,29.83
2018-11-04T03:24:52.506Z,29.93
2018-11-04T03:27:21.200Z,30.57
2018-11-04T03:29:49.954Z,30.20
2018-11-04T03:32:19.131Z,30.63
2018-11-04T03:34:47.873Z,32.70
2018-11-04T03:37:16.650Z,36.70
2018-11-04T03:39:45.428Z,28.53
2018-11-04T03:42:14.151Z,34.33
2018-11-04T03:44:42.880Z,30.37
2018-11-04T03:47:11.628Z,38.73
2018-11-04T03:49:40.390Z,31.30
2018-11-04T03:52:09.085Z,29.90
2018-11-04T03:54:37.859Z,35.83
2018-11-04T03:57:07.077Z,31.73
2018-11-04T03:59:35.981Z,36.43
2018-11-04T04:02:05.333Z,32.23
2018-11-04T04:04:34.055Z,37.93
2018-11-04T04:07:02.782Z,33.33
2018-11-04T04:09:31.492Z,35.83
2018-11-04T04:12:00.206Z,30.30
2018-11-04T04:14:28.967Z,32.63
2018-11-04T04:16:57.698Z,36.90
2018-11-04T04:19:26.589Z,34.73
2018-11-04T04:21:55.313Z,37.53
2018-11-04T04:24:24.654Z,33.77
2018-11-04T04:26:53.358Z,37.17
2018-11-04T04:29:22.083Z,39.90
2018-11-04T04:31:50.814Z,32.70
2018-11-04T04:34:19.548Z,35.00
2018-11-04T04:36:48.270Z,43.27
2018-11-04T04:39:17.351Z,35.27
2018-11-04T04:41:46.081Z,31.97
2018-11-04T04:44:14.815Z,37.63
2018-11-04T04:46:43.541Z,31.10
2018-11-04T04:49:12.813Z,34.97
2018-11-04T04:51:41.549Z,35.93
2018-11-04T04:54:10.363Z,40.73
2018-11-04T04:56:39.083Z,37.07
2018-11-04T04:59:07.843Z,34.23
2018-11-04T05:01:36.562Z,34.97
2018-11-04T05:04:05.259Z,37.37
2018-11-04T05:06:34.011Z,39.33
2018-11-04T05:09:02.757Z,33.97
2018-11-04T05:11:31.651Z,33.47
2018-11-04T05:14:00.399Z,36.23
2018-11-04T05:16:29.098Z,39.13
2018-11-04T05:18:57.811Z,33.57
2018-11-04T05:21:26.569Z,34.50
2018-11-04T05:23:55.297Z,35.63
2018-11-04T05:26:24.028Z,31.03
2018-11-04T05:28:52.761Z,35.97
2018-11-04T05:31:21.550Z,38.43
2018-11-04T05:33:50.274Z,36.73
2018-11-04T05:36:18.993Z,36.43
2018-11-04T05:38:47.730Z,37.57
2018-11-04T05:41:16.580Z,40.07
2018-11-04T05:43:45.323Z,40.23
2018-11-04T05:46:14.036Z,40.30
2018-11-04T05:48:42.745Z,39.03
2018-11-04T05:51:11.560Z,37.87
2018-11-04T05:53:40.986Z,40.63
2018-11-04T05:56:10.374Z,36.27
2018-11-04T05:58:39.075Z,41.30
2018-11-04T06:01:08.055Z,35.17
2018-11-04T06:03:36.773Z,40.80
2018-11-04T06:06:05.545Z,45.37
2018-11-04T06:08:34.270Z,42.77
2018-11-04T06:11:02.979Z,41.57
2018-11-04T06:13:31.737Z,38.50
2018-11-04T06:16:00.476Z,44.53
2018-11-04T06:18:29.311Z,44.60
2018-11-04T06:20:58.030Z,40.00
2018-11-04T06:23:26.759Z,41.53
2018-11-04T06:25:55.499Z,42.17
2018-11-04T06:28:24.261Z,40.63
2018-11-04T06:30:52.979Z,42.73
2018-11-04T06:33:21.711Z,50.93
2018-11-04T06:35:50.395Z,41.40
2018-11-04T06:38:19.109Z,43.67
2018-11-04T06:40:47.844Z,50.20
2018-11-04T06:43:16.697Z,47.73
2018-11-04T06:45:45.417Z,46.23
2018-11-04T06:48:14.128Z,40.87
2018-11-04T06:50:42.875Z,42.97
2018-11-04T06:53:11.619Z,42.70
2018-11-04T06:55:40.382Z,42.23
2018-11-04T06:58:09.111Z,45.27
2018-11-04T07:00:37.842Z,43.57
2018-11-04T07:03:06.558Z,45.67
2018-11-04T07:05:35.336Z,45.13
2018-11-04T07:08:04.090Z,49.00
2018-11-04T07:10:32.843Z,50.17
2018-11-04T07:13:01.572Z,44.73
2018-11-04T07:15:30.307Z,40.67
2018-11-04T07:17:58.998Z,48.20
2018-11-04T07:20:27.765Z,42.50
2018-11-04T07:22:56.456Z,44.93
2018-11-04T07:25:25.224Z,55.10
2018-11-04T07:27:53.880Z,55.80
2018-11-04T07:30:22.656Z,51.07
2018-11-04T07:32:51.386Z,46.57
2018-11-04T07:35:20.128Z,49.77
2018-11-04T07:37:48.849Z,54.97
2018-11-04T07:40:17.703Z,48.47
2018-11-04T07:42:46.444Z,49.63
2018-11-04T07:45:15.183Z,53.33
2018-11-04T07:47:43.964Z,50.60
2018-11-04T07:50:14.207Z,57.43
2018-11-04T07:52:43.875Z,48.97
2018-11-04T07:55:12.663Z,56.80
2018-11-04T07:57:43.184Z,56.27
2018-11-04T08:00:13.846Z,49.37
2018-11-04T08:02:43.050Z,49.87
2018-11-04T08:05:12.338Z,53.47
2018-11-04T08:07:41.505Z,54.97
2018-11-04T08:10:14.104Z,61.63
2018-11-04T08:12:42.872Z,59.00
2018-11-04T08:15:11.893Z,57.17
2018-11-04T08:17:40.984Z,55.70
2018-11-04T08:20:10.431Z,63.57
2018-11-04T08:22:39.574Z,59.37
2018-11-04T08:25:08.309Z,54.83
2018-11-04T08:27:37.070Z,63.57
2018-11-04T08:30:06.958Z,57.93
2018-11-04T08:32:35.726Z,58.70
2018-11-04T08:35:05.044Z,58.63
2018-11-04T08:37:34.001Z,62.23
2018-11-04T08:40:03.150Z,62.33
2018-11-04T08:42:31.799Z,65.73
2018-11-04T08:45:00.504Z,61.97
2018-11-04T08:47:29.226Z,64.33
2018-11-04T08:49:58.090Z,56.10
2018-11-04T08:52:26.850Z,60.47
2018-11-04T08:54:55.546Z,63.87
2018-11-04T08:57:24.392Z,64.33
2018-11-04T08:59:53.153Z,54.97
2018-11-04T09:02:21.864Z,66.47
2018-11-04T09:04:50.590Z,59.83
2018-11-04T09:07:19.644Z,57.63
2018-11-04T09:09:48.371Z,65.93
2018-11-04T09:12:17.273Z,61.30
2018-11-04T09:14:46.124Z,63.10
2018-11-04T09:17:14.840Z,62.90
2018-11-04T09:19:43.618Z,64.93
2018-11-04T09:22:12.457Z,65.87
2018-11-04T09:24:41.137Z,74.67
2018-11-04T09:27:09.870Z,75.47
2018-11-04T09:29:38.590Z,75.90
2018-11-04T09:32:07.338Z,77.50
2018-11-04T09:34:36.087Z,77.77
2018-11-04T09:37:05.125Z,79.23
2018-11-04T09:39:33.933Z,82.50
2018-11-04T09:42:02.665Z,81.67
2018-11-04T09:44:31.688Z,88.75
2018-11-04T09:47:00.419Z,83.07
2018-11-04T09:49:29.175Z,77.03
2018-11-04T09:51:58.046Z,79.57
2018-11-04T09:54:26.758Z,75.13
2018-11-04T09:56:55.514Z,78.83
2018-11-04T09:59:24.236Z,81.20
2018-11-04T10:01:52.983Z,85.80
2018-11-04T10:04:21.738Z,77.97
2018-11-04T10:06:50.500Z,83.03
2018-11-04T10:09:19.247Z,86.33
2018-11-04T10:11:47.970Z,79.63
2018-11-04T10:14:16.772Z,77.77
2018-11-04T10:16:45.483Z,81.17
2018-11-04T10:19:14.300Z,80.90
2018-11-04T10:21:43.150Z,96.60
2018-11-04T10:24:12.142Z,84.80
2018-11-04T10:26:40.891Z,86.17
2018-11-04T10:29:09.600Z,86.97
2018-11-04T10:31:38.319Z,82.83
2018-11-04T10:34:07.088Z,82.17
2018-11-04T10:36:35.866Z,80.10
2018-11-04T10:39:07.342Z,85.73
2018-11-04T10:41:36.090Z,81.83
2018-11-04T10:44:05.053Z,85.60
2018-11-04T10:46:33.822Z,76.40
2018-11-04T10:49:02.619Z,83.43
2018-11-04T10:51:31.411Z,80.67
2018-11-04T10:54:00.142Z,90.47
2018-11-04T10:56:28.944Z,84.23
2018-11-04T10:58:57.735Z,87.80
2018-11-04T11:01:26.578Z,84.03
2018-11-04T11:03:55.298Z,84.63
2018-11-04T11:06:24.039Z,87.43
2018-11-04T11:08:52.770Z,74.67
2018-11-04T11:11:21.571Z,84.50
2018-11-04T11:13:50.390Z,87.30
2018-11-04T11:16:19.143Z,90.50
2018-11-04T11:18:47.863Z,85.00
2018-11-04T11:21:16.712Z,85.10
2018-11-04T11:23:45.396Z,83.67
2018-11-04T11:26:14.209Z,82.37
2018-11-04T11:28:43.150Z,83.50
2018-11-04T11:31:11.991Z,84.17
2018-11-04T11:33:40.815Z,77.47
2018-11-04T11:36:09.543Z,87.33
2018-11-04T11:38:38.256Z,97.10
2018-11-04T11:41:06.996Z,92.20
2018-11-04T11:43:35.825Z,88.40
2018-11-04T11:46:04.606Z,89.83
2018-11-04T11:48:33.357Z,82.13
2018-11-04T11:51:02.119Z,91.23
2018-11-04T11:53:30.897Z,86.80
2018-11-04T11:55:59.621Z,87.97
2018-11-04T11:58:28.367Z,83.10
2018-11-04T12:00:57.155Z,88.37
2018-11-04T12:03:25.932Z,81.80
2018-11-04T12:05:54.720Z,81.53
2018-11-04T12:08:23.689Z,85.93
2018-11-04T12:10:52.428Z,87.50
2018-11-04T12:13:21.211Z,84.63
2018-11-04T12:15:49.969Z,87.23
2018-11-04T12:18:18.747Z,78.97
2018-11-04T12:20:47.485Z,69.93
2018-11-04T12:23:16.377Z,80.13
2018-11-04T12:25:45.183Z,81.50
2018-11-04T12:28:14.067Z,93.00
2018-11-04T12:30:42.787Z,82.00
2018-11-04T12:33:11.815Z,80.90
2018-11-04T12:35:40.568Z,80.97
2018-11-04T12:38:09.413Z,76.80
2018-11-04T12:40:38.180Z,80.80
2018-11-04T12:43:06.931Z,79.50
2018-11-04T12:45:35.895Z,84.17
2018-11-04T12:48:04.736Z,78.40
2018-11-04T12:50:33.486Z,80.17
2018-11-04T12:53:02.235Z,78.60
2018-11-04T12:55:31.021Z,85.13
2018-11-04T12:57:59.779Z,78.23
2018-11-04T13:00:28.587Z,79.60
2018-11-04T13:02:57.399Z,86.77
2018-11-04T13:05:26.191Z,84.03
2018-11-04T13:07:55.885Z,86.30
2018-11-04T13:10:24.622Z,82.17
2018-11-04T13:12:53.380Z,84.80
2018-11-04T13:15:22.152Z,81.83
2018-11-04T13:17:50.916Z,88.33
2018-11-04T13:20:19.670Z,98.60
2018-11-04T13:22:48.412Z,89.43
2018-11-04T13:25:17.207Z,87.03
2018-11-04T13:27:46.033Z,87.37
2018-11-04T13:30:15.044Z,82.03
2018-11-04T13:32:43.802Z,87.17
2018-11-04T13:35:12.610Z,80.97
2018-11-04T13:37:41.328Z,82.63
2018-11-04T13:40:11.101Z,89.30
2018-11-04T13:42:39.978Z,88.47
2018-11-04T13:45:09.084Z,91.73
2018-11-04T13:47:37.978Z,86.17
2018-11-04T13:50:08.802Z,96.93
2018-11-04T13:52:37.534Z,96.03
2018-11-04T13:55:07.117Z,87.80
2018-11-04T13:57:35.956Z,96.07
2018-11-04T14:00:04.951Z,83.70
2018-11-04T14:02:33.755Z,98.70
2018-11-04T14:05:02.569Z,85.47
2018-11-04T14:07:31.303Z,84.10
2018-11-04T14:10:00.105Z,85.40
2018-11-04T14:12:28.874Z,83.93
2018-11-04T14:14:57.629Z,86.00
2018-11-04T14:17:26.461Z,82.17
2018-11-04T14:19:55.221Z,87.70
2018-11-04T14:22:23.990Z,81.27
2018-11-04T14:24:52.752Z,84.20
2018-11-04T14:27:21.506Z,93.50
2018-11-04T14:29:50.262Z,96.67
2018-11-04T14:32:19.070Z,91.93
2018-11-04T14:34:47.849Z,93.40
2018-11-04T14:37:16.639Z,99.73
2018-11-04T14:39:45.477Z,97.50
2018-11-04T14:42:14.500Z,86.53
2018-11-04T14:44:43.865Z,88.80
2018-11-04T14:47:12.768Z,87.77
2018-11-04T14:49:41.729Z,93.50
2018-11-04T14:52:10.504Z,97.60
2018-11-04T14:54:39.230Z,97.30
2018-11-04T14:57:08.010Z,107.83
2018-11-04T14:59:36.801Z,88.93
2018-11-04T15:02:05.551Z,96.90
2018-11-04T15:04:34.280Z,93.90
2018-11-04T15:07:03.015Z,100.77
2018-11-04T15:09:31.791Z,93.57
2018-11-04T15:12:00.500Z,105.23
2018-11-04T15:14:29.278Z,93.63
2018-11-04T15:16:58.750Z,105.07
2018-11-04T15:19:27.516Z,92.20
2018-11-04T15:21:56.307Z,100.70
2018-11-04T15:24:25.160Z,89.17
2018-11-04T15:26:53.885Z,107.17
2018-11-04T15:29:22.589Z,105.47
2018-11-04T15:31:51.397Z,110.13
2018-11-04T15:34:20.182Z,116.70
2018-11-04T15:36:48.852Z,103.97
2018-11-04T15:39:18.257Z,107.37
2018-11-04T15:41:46.992Z,107.70
2018-11-04T15:44:15.770Z,111.43
2018-11-04T15:46:44.510Z,104.73
2018-11-04T15:49:13.320Z,108.60
2018-11-04T15:51:42.034Z,112.70
2018-11-04T15:54:10.778Z,108.37
2018-11-04T15:56:39.541Z,110.80
2018-11-04T15:59:08.572Z,109.07
2018-11-04T16:01:37.367Z,104.23
2018-11-04T16:04:06.112Z,110.77
2018-11-04T16:06:34.857Z,114.27
2018-11-04T16:09:04.429Z,111.33
2018-11-04T16:11:33.166Z,96.83
2018-11-04T16:14:02.028Z,96.47
2018-11-04T16:16:31.065Z,101.77
2018-11-04T16:18:59.890Z,96.17
2018-11-04T16:21:28.636Z,95.30
2018-11-04T16:23:57.382Z,88.60
2018-11-04T16:26:26.113Z,99.90
2018-11-04T16:28:54.825Z,97.70
2018-11-04T16:31:23.636Z,107.53
2018-11-04T16:33:52.392Z,100.27
2018-11-04T16:36:21.122Z,99.57
2018-11-04T16:38:49.900Z,93.63
2018-11-04T16:41:18.876Z,96.53
2018-11-04T16:43:47.697Z,84.10
2018-11-04T16:46:16.427Z,89.43
2018-11-04T16:48:45.174Z,88.33
2018-11-04T16:51:13.941Z,86.37
2018-11-04T16:53:42.695Z,86.93
2018-11-04T16:56:11.512Z,80.53
2018-11-04T16:58:40.274Z,87.40
2018-11-04T17:01:09.022Z,90.10
2018-11-04T17:03:37.774Z,81.20
2018-11-04T17:06:06.573Z,86.00
2018-11-04T17:08:35.347Z,86.37
2018-11-04T17:11:04.229Z,83.43
2018-11-04T17:13:32.981Z,90.57
2018-11-04T17:16:01.707Z,89.17
2018-11-04T17:18:30.436Z,90.73
2018-11-04T17:20:59.177Z,87.57
2018-11-04T17:23:27.907Z,96.97
2018-11-04T17:25:56.657Z,86.10
2018-11-04T17:28:25.420Z,81.17
2018-11-04T17:30:54.213Z,83.00
2018-11-04T17:33:22.955Z,77.97
2018-11-04T17:35:51.697Z,78.27
2018-11-04T17:38:20.472Z,86.07
2018-11-04T17:40:49.189Z,92.03
2018-11-04T17:43:18.067Z,91.00
2018-11-04T17:45:46.937Z,85.33
2018-11-04T17:48:15.736Z,88.03
2018-11-04T17:50:44.591Z,88.00
2018-11-04T17:53:13.361Z,80.83
2018-11-04T17:55:42.075Z,85.73
2018-11-04T17:58:10.820Z,78.50
2018-11-04T18:00:39.555Z,83.23
2018-11-04T18:03:08.346Z,81.63
2018-11-04T18:05:37.091Z,83.17
2018-11-04T18:08:05.909Z,77.73
2018-11-04T18:10:34.616Z,79.17
2018-11-04T18:13:03.409Z,69.20
2018-11-04T18:15:32.130Z,82.07
2018-11-04T18:18:01.132Z,80.20
2018-11-04T18:20:29.858Z,77.50
2018-11-04T18:22:58.616Z,76.20
2018-11-04T18:25:27.348Z,72.27
2018-11-04T18:27:56.122Z,71.83
2018-11-04T18:30:24.825Z,83.07
2018-11-04T18:32:53.622Z,68.20
2018-11-04T18:35:22.390Z,75.40
2018-11-04T18:37:51.136Z,66.30
2018-11-04T18:40:19.961Z,66.80
2018-11-04T18:42:48.749Z,62.40
2018-11-04T18:45:17.898Z,63.20
2018-11-04T18:47:46.838Z,57.67
2018-11-04T18:50:16.405Z,66.27
2018-11-04T18:52:45.587Z,62.03
2018-11-04T18:55:14.265Z,67.50
2018-11-04T18:57:43.870Z,70.57
2018-11-04T19:00:14.265Z,62.43
2018-11-04T19:02:43.416Z,62.03
2018-11-04T19:05:12.271Z,65.57
2018-11-04T19:07:41.010Z,64.40
2018-11-04T19:10:12.355Z,74.77
2018-11-04T19:12:41.395Z,65.87
2018-11-04T19:15:10.315Z,62.17
2018-11-04T19:17:39.164Z,63.97
2018-11-04T19:20:09.598Z,54.10
2018-11-04T19:22:38.807Z,61.03
2018-11-04T19:25:08.834Z,62.17
2018-11-04T19:27:37.662Z,64.83
2018-11-04T19:30:08.113Z,70.67
2018-11-04T19:32:37.039Z,72.90
2018-11-04T19:35:06.818Z,63.07
2018-11-04T19:37:35.558Z,63.73
2018-11-04T19:40:05.500Z,72.27
2018-11-04T19:42:34.348Z,70.20
2018-11-04T19:45:02.988Z,58.33
2018-11-04T19:47:31.760Z,65.80
2018-11-04T19:50:00.593Z,63.13
2018-11-04T19:52:29.391Z,71.67
2018-11-04T19:54:58.272Z,56.57
2018-11-04T19:57:28.499Z,58.67
2018-11-04T19:59:58.217Z,71.07
2018-11-04T20:02:27.702Z,71.43
2018-11-04T20:04:57.474Z,69.23
2018-11-04T20:07:26.750Z,68.27
2018-11-04T20:09:55.529Z,63.63
2018-11-04T20:12:29.680Z,55.40
2018-11-04T20:14:58.394Z,68.93
2018-11-04T20:17:27.170Z,63.07
2018-11-04T20:20:01.560Z,58.90
2018-11-04T20:22:30.133Z,55.73
2018-11-04T20:25:04.398Z,58.50
2018-11-04T20:27:33.172Z,61.73
2018-11-04T20:30:01.930Z,59.80
2018-11-04T20:32:36.107Z,56.03
2018-11-04T20:35:04.891Z,63.07
2018-11-04T20:37:33.630Z,53.03
2018-11-04T20:40:07.742Z,47.47
2018-11-04T20:42:36.470Z,54.47
2018-11-04T20:45:05.406Z,51.40
2018-11-04T20:47:39.324Z,51.67
2018-11-04T20:50:13.463Z,52.00
2018-11-04T20:52:42.187Z,52.67
2018-11-04T20:55:11.158Z,51.73
2018-11-04T20:57:44.152Z,54.57
2018-11-04T21:00:13.792Z,47.93
2018-11-04T21:02:43.394Z,55.47
2018-11-04T21:05:12.188Z,54.13
2018-11-04T21:07:41.033Z,48.27
2018-11-04T21:10:10.535Z,48.10
2018-11-04T21:12:39.473Z,51.57
2018-11-04T21:15:08.217Z,55.63
2018-11-04T21:17:37.951Z,53.53
2018-11-04T21:20:09.215Z,48.80
2018-11-04T21:22:38.001Z,56.10
2018-11-04T21:25:07.096Z,49.50
2018-11-04T21:27:35.879Z,54.23
2018-11-04T21:30:06.849Z,52.63
2018-11-04T21:32:35.799Z,50.10
2018-11-04T21:35:05.663Z,51.70
2018-11-04T21:37:34.470Z,56.70
2018-11-04T21:40:03.233Z,57.93
2018-11-04T21:42:32.148Z,57.47
2018-11-04T21:45:00.736Z,56.00
2018-11-04T21:47:29.479Z,71.27
2018-11-04T21:49:58.212Z,68.27
2018-11-04T21:52:26.942Z,66.10
2018-11-04T21:54:55.712Z,57.33
2018-11-04T21:57:24.449Z,60.50
2018-11-04T21:59:53.178Z,66.83
2018-11-04T22:02:21.943Z,59.23
2018-11-04T22:04:50.809Z,66.00
2018-11-04T22:07:19.560Z,65.40
2018-11-04T22:09:48.398Z,60.63
2018-11-04T22:12:18.228Z,62.87
2018-11-04T22:14:46.956Z,70.20
2018-11-04T22:17:15.758Z,60.30
2018-11-04T22:19:44.490Z,65.60
2018-11-04T22:22:13.203Z,65.43
2018-11-04T22:24:41.930Z,77.10
2018-11-04T22:27:10.716Z,71.30
2018-11-04T22:29:39.458Z,63.40
2018-11-04T22:32:08.218Z,68.83
2018-11-04T22:34:36.922Z,63.60
2018-11-04T22:37:05.754Z,70.47
2018-11-04T22:39:34.473Z,67.43
2018-11-04T22:42:03.202Z,67.73
2018-11-04T22:44:31.978Z,75.07
2018-11-04T22:47:00.702Z,76.53
2018-11-04T22:49:29.455Z,76.93
2018-11-04T22:51:58.178Z,73.30
2018-11-04T22:54:26.915Z,70.53
2018-11-04T22:56:55.719Z,74.17
2018-11-04T22:59:24.729Z,77.53
2018-11-04T23:01:53.572Z,70.30
2018-11-04T23:04:27.763Z,76.43
2018-11-04T23:06:56.489Z,71.07
2018-11-04T23:09:25.226Z,75.97
2018-11-04T23:11:53.963Z,84.17
2018-11-04T23:14:22.690Z,69.10
2018-11-04T23:16:51.466Z,78.10
2018-11-04T23:19:20.228Z,75.80
2018-11-04T23:21:48.983Z,83.67
2018-11-04T23:24:17.796Z,87.10
2018-11-04T23:26:46.603Z,77.73
2018-11-04T23:29:15.381Z,83.63
2018-11-04T23:31:44.129Z,89.77
2018-11-04T23:34:12.835Z,90.63
2018-11-04T23:36:41.606Z,93.30
2018-11-04T23:39:10.935Z,86.77
2018-11-04T23:41:39.911Z,96.77
2018-11-04T23:44:08.627Z,101.40
2018-11-04T23:46:37.395Z,100.90
2018-11-04T23:49:06.369Z,90.80
2018-11-04T23:51:35.131Z,112.23
2018-11-04T23:54:04.092Z,124.73
2018-11-04T23:56:32.822Z,101.20
2018-11-04T23:59:01.589Z,108.47
